XNO212E EGCC-EGKK
Flight info
| Callsign | XNO212E |
|---|---|
| Flight time | 0h 42m |
| Altitude | 19000 |
| Route | LISTO L612 HON N859 KIDLI |
| Aircraft | A20N/M-SDE2E3FGHIRWXY/LB1 |
Departure
| Time | 2026-05-04 03:46 |
|---|---|
| Airport | Manchester Airport (EGCC) |
Arrival
| Time | 2026-05-04 04:29 |
|---|---|
| Airport | London Gatwick Airport (EGKK) |
| Time | Latitude | Longitude | Altitude | Speed | Heading |
|---|---|---|---|---|---|
| 2026-05-04 03:30 | 53.36090 | -2.26803 | 255 ft | 0 kts | 315° |
| 2026-05-04 03:32 | 53.36086 | -2.26796 | 255 ft | 2 kts | 315° |
| 2026-05-04 03:33 | 53.36076 | -2.26779 | 255 ft | 2 kts | 313° |
| 2026-05-04 03:33 | 53.36066 | -2.26761 | 255 ft | 1 kts | 313° |
| 2026-05-04 03:33 | 53.36056 | -2.26742 | 255 ft | 2 kts | 301° |
| 2026-05-04 03:33 | 53.36051 | -2.26720 | 255 ft | 2 kts | 274° |
| 2026-05-04 03:34 | 53.36052 | -2.26695 | 255 ft | 2 kts | 245° |
| 2026-05-04 03:34 | 53.36054 | -2.26688 | 255 ft | 0 kts | 238° |
| 2026-05-04 03:36 | 53.36054 | -2.26689 | 255 ft | 0 kts | 238° |
| 2026-05-04 03:37 | 53.36042 | -2.26715 | 255 ft | 5 kts | 234° |
| 2026-05-04 03:37 | 53.36041 | -2.26717 | 255 ft | 0 kts | 233° |
| 2026-05-04 03:38 | 53.36036 | -2.26728 | 255 ft | 4 kts | 231° |
| 2026-05-04 03:38 | 53.36011 | -2.26780 | 255 ft | 8 kts | 231° |
| 2026-05-04 03:38 | 53.35967 | -2.26845 | 255 ft | 6 kts | 199° |
| 2026-05-04 03:39 | 53.35919 | -2.26833 | 255 ft | 8 kts | 179° |
| 2026-05-04 03:39 | 53.35876 | -2.26889 | 255 ft | 7 kts | 230° |
| 2026-05-04 03:39 | 53.35841 | -2.26969 | 255 ft | 10 kts | 237° |
| 2026-05-04 03:39 | 53.35798 | -2.27084 | 255 ft | 13 kts | 234° |
| 2026-05-04 03:40 | 53.35736 | -2.27213 | 255 ft | 16 kts | 232° |
| 2026-05-04 03:40 | 53.35663 | -2.27367 | 254 ft | 13 kts | 232° |
| 2026-05-04 03:40 | 53.35604 | -2.27487 | 256 ft | 14 kts | 231° |
| 2026-05-04 03:40 | 53.35533 | -2.27638 | 252 ft | 19 kts | 232° |
| 2026-05-04 03:41 | 53.35457 | -2.27827 | 247 ft | 18 kts | 260° |
| 2026-05-04 03:41 | 53.35402 | -2.28011 | 243 ft | 20 kts | 225° |
| 2026-05-04 03:41 | 53.35291 | -2.28193 | 237 ft | 25 kts | 225° |
| 2026-05-04 03:41 | 53.35168 | -2.28432 | 231 ft | 29 kts | 231° |
| 2026-05-04 03:42 | 53.35031 | -2.28711 | 222 ft | 33 kts | 229° |
| 2026-05-04 03:42 | 53.34887 | -2.28968 | 218 ft | 23 kts | 228° |
| 2026-05-04 03:42 | 53.34785 | -2.29071 | 212 ft | 0 kts | 186° |
| 2026-05-04 03:45 | 53.34759 | -2.29073 | 209 ft | 7 kts | 179° |
| 2026-05-04 03:45 | 53.34699 | -2.29038 | 210 ft | 11 kts | 145° |
| 2026-05-04 03:45 | 53.34674 | -2.28954 | 215 ft | 6 kts | 73° |
| 2026-05-04 03:45 | 53.34700 | -2.28896 | 212 ft | 6 kts | 50° |
| 2026-05-04 03:46 | 53.34798 | -2.28689 | 219 ft | 59 kts | 53° |
| 2026-05-04 03:46 | 53.35222 | -2.27817 | 242 ft | 133 kts | 51° |
| 2026-05-04 03:46 | 53.35876 | -2.26418 | 607 ft | 162 kts | 52° |
| 2026-05-04 03:46 | 53.36615 | -2.24769 | 952 ft | 196 kts | 53° |
| 2026-05-04 03:47 | 53.37399 | -2.22722 | 1519 ft | 214 kts | 70° |
| 2026-05-04 03:47 | 53.37540 | -2.20295 | 2611 ft | 216 kts | 101° |
| 2026-05-04 03:47 | 53.36859 | -2.17968 | 3331 ft | 237 kts | 131° |
| 2026-05-04 03:47 | 53.35422 | -2.16388 | 3853 ft | 261 kts | 162° |
| 2026-05-04 03:48 | 53.33563 | -2.16113 | 4524 ft | 274 kts | 185° |
| 2026-05-04 03:48 | 53.31659 | -2.16430 | 4886 ft | 274 kts | 187° |
| 2026-05-04 03:48 | 53.29769 | -2.16795 | 5006 ft | 273 kts | 187° |
| 2026-05-04 03:48 | 53.27884 | -2.17187 | 5005 ft | 272 kts | 188° |
| 2026-05-04 03:49 | 53.26026 | -2.17602 | 5011 ft | 271 kts | 188° |
| 2026-05-04 03:49 | 53.24147 | -2.18051 | 5023 ft | 272 kts | 189° |
| 2026-05-04 03:49 | 53.22273 | -2.18529 | 5014 ft | 272 kts | 189° |
| 2026-05-04 03:49 | 53.20425 | -2.19024 | 5009 ft | 271 kts | 190° |
| 2026-05-04 03:50 | 53.18562 | -2.19549 | 4997 ft | 271 kts | 191° |
| 2026-05-04 03:50 | 53.16692 | -2.19988 | 5009 ft | 272 kts | 184° |
| 2026-05-04 03:50 | 53.14806 | -2.19778 | 5075 ft | 271 kts | 168° |
| 2026-05-04 03:50 | 53.13045 | -2.18797 | 5500 ft | 272 kts | 158° |
| 2026-05-04 03:51 | 53.11238 | -2.17622 | 6163 ft | 285 kts | 160° |
| 2026-05-04 03:51 | 53.09336 | -2.16479 | 6984 ft | 294 kts | 161° |
| 2026-05-04 03:51 | 53.07377 | -2.15326 | 7902 ft | 299 kts | 161° |
| 2026-05-04 03:51 | 53.05466 | -2.14061 | 9203 ft | 289 kts | 158° |
| 2026-05-04 03:52 | 53.03636 | -2.12700 | 10279 ft | 291 kts | 157° |
| 2026-05-04 03:52 | 53.01757 | -2.11307 | 10712 ft | 312 kts | 157° |
| 2026-05-04 03:52 | 52.99668 | -2.09805 | 11056 ft | 335 kts | 158° |
| 2026-05-04 03:52 | 52.97491 | -2.08280 | 11746 ft | 342 kts | 158° |
| 2026-05-04 03:53 | 52.95275 | -2.06746 | 12631 ft | 345 kts | 158° |
| 2026-05-04 03:53 | 52.93065 | -2.05226 | 13505 ft | 348 kts | 158° |
| 2026-05-04 03:53 | 52.90821 | -2.03686 | 14313 ft | 351 kts | 158° |
| 2026-05-04 03:53 | 52.88545 | -2.02127 | 15025 ft | 356 kts | 158° |
| 2026-05-04 03:54 | 52.86247 | -2.00555 | 15759 ft | 359 kts | 158° |
| 2026-05-04 03:54 | 52.83930 | -1.98971 | 16483 ft | 363 kts | 158° |
| 2026-05-04 03:54 | 52.81570 | -1.97361 | 17209 ft | 367 kts | 158° |
| 2026-05-04 03:54 | 52.79195 | -1.95739 | 17942 ft | 370 kts | 158° |
| 2026-05-04 03:55 | 52.76845 | -1.94138 | 18578 ft | 374 kts | 158° |
| 2026-05-04 03:55 | 52.74430 | -1.92493 | 18875 ft | 376 kts | 158° |
| 2026-05-04 03:55 | 52.72011 | -1.90848 | 18973 ft | 376 kts | 158° |
| 2026-05-04 03:55 | 52.69588 | -1.89203 | 18986 ft | 375 kts | 158° |
| 2026-05-04 03:56 | 52.67195 | -1.87578 | 18989 ft | 375 kts | 158° |
| 2026-05-04 03:56 | 52.64775 | -1.85939 | 18990 ft | 375 kts | 158° |
| 2026-05-04 03:56 | 52.62352 | -1.84299 | 18989 ft | 375 kts | 158° |
| 2026-05-04 03:56 | 52.59933 | -1.82665 | 18991 ft | 375 kts | 158° |
| 2026-05-04 03:57 | 52.57508 | -1.81029 | 18991 ft | 375 kts | 158° |
| 2026-05-04 03:57 | 52.55091 | -1.79400 | 18995 ft | 375 kts | 159° |
| 2026-05-04 03:57 | 52.52701 | -1.77790 | 18996 ft | 375 kts | 159° |
| 2026-05-04 03:57 | 52.50285 | -1.76165 | 18992 ft | 374 kts | 159° |
| 2026-05-04 03:58 | 52.45449 | -1.72917 | 18994 ft | 374 kts | 159° |
| 2026-05-04 03:58 | 52.43036 | -1.71300 | 18994 ft | 374 kts | 159° |
| 2026-05-04 03:58 | 52.40658 | -1.69709 | 18991 ft | 374 kts | 159° |
| 2026-05-04 03:59 | 52.38254 | -1.68101 | 18992 ft | 374 kts | 159° |
| 2026-05-04 03:59 | 52.35840 | -1.66498 | 18990 ft | 373 kts | 161° |
| 2026-05-04 03:59 | 52.33377 | -1.65164 | 18990 ft | 373 kts | 164° |
| 2026-05-04 03:59 | 52.30900 | -1.63878 | 18986 ft | 372 kts | 164° |
| 2026-05-04 04:00 | 52.28417 | -1.62583 | 18987 ft | 372 kts | 164° |
| 2026-05-04 04:00 | 52.25983 | -1.61313 | 18970 ft | 372 kts | 164° |
| 2026-05-04 04:00 | 52.23516 | -1.60026 | 18969 ft | 372 kts | 164° |
| 2026-05-04 04:00 | 52.21047 | -1.58740 | 18970 ft | 371 kts | 164° |
| 2026-05-04 04:01 | 52.18585 | -1.57460 | 18967 ft | 371 kts | 164° |
| 2026-05-04 04:01 | 52.16118 | -1.56179 | 18966 ft | 371 kts | 164° |
| 2026-05-04 04:01 | 52.13656 | -1.54901 | 18966 ft | 371 kts | 164° |
| 2026-05-04 04:01 | 52.11196 | -1.53626 | 18967 ft | 371 kts | 164° |
| 2026-05-04 04:02 | 52.08735 | -1.52352 | 18967 ft | 370 kts | 164° |
| 2026-05-04 04:02 | 52.06303 | -1.51095 | 18968 ft | 370 kts | 164° |
| 2026-05-04 04:02 | 52.03847 | -1.49828 | 18969 ft | 370 kts | 164° |
| 2026-05-04 04:02 | 52.01387 | -1.48560 | 18971 ft | 371 kts | 164° |
| 2026-05-04 04:03 | 51.98925 | -1.47292 | 18969 ft | 370 kts | 164° |
| 2026-05-04 04:03 | 51.96462 | -1.46025 | 18968 ft | 370 kts | 164° |
| 2026-05-04 04:03 | 51.93998 | -1.44758 | 18968 ft | 370 kts | 164° |
| 2026-05-04 04:03 | 51.91564 | -1.43509 | 18965 ft | 370 kts | 164° |
| 2026-05-04 04:04 | 51.89101 | -1.42246 | 18967 ft | 370 kts | 164° |
| 2026-05-04 04:04 | 51.86637 | -1.40984 | 18967 ft | 370 kts | 164° |
| 2026-05-04 04:04 | 51.84205 | -1.39740 | 18966 ft | 370 kts | 164° |
| 2026-05-04 04:04 | 51.81738 | -1.38480 | 18965 ft | 370 kts | 164° |
| 2026-05-04 04:05 | 51.79282 | -1.37222 | 18965 ft | 370 kts | 163° |
| 2026-05-04 04:05 | 51.76882 | -1.35651 | 18968 ft | 372 kts | 156° |
| 2026-05-04 04:05 | 51.75371 | -1.34327 | 18935 ft | 374 kts | 151° |
| 2026-05-04 04:05 | 51.73175 | -1.32041 | 18719 ft | 374 kts | 149° |
| 2026-05-04 04:06 | 51.71004 | -1.29753 | 18477 ft | 372 kts | 149° |
| 2026-05-04 04:06 | 51.68834 | -1.27477 | 18233 ft | 370 kts | 149° |
| 2026-05-04 04:06 | 51.66692 | -1.25241 | 17963 ft | 369 kts | 149° |
| 2026-05-04 04:06 | 51.64538 | -1.22998 | 17692 ft | 367 kts | 149° |
| 2026-05-04 04:07 | 51.62406 | -1.20784 | 17422 ft | 366 kts | 149° |
| 2026-05-04 04:07 | 51.60267 | -1.18565 | 17153 ft | 365 kts | 149° |
| 2026-05-04 04:07 | 51.58153 | -1.16375 | 16883 ft | 363 kts | 149° |
| 2026-05-04 04:07 | 51.56028 | -1.14176 | 16647 ft | 362 kts | 149° |
| 2026-05-04 04:08 | 51.53919 | -1.11997 | 16379 ft | 360 kts | 149° |
| 2026-05-04 04:08 | 51.51809 | -1.09818 | 16113 ft | 359 kts | 149° |
| 2026-05-04 04:08 | 51.49709 | -1.07653 | 15861 ft | 358 kts | 149° |
| 2026-05-04 04:08 | 51.47620 | -1.05500 | 15605 ft | 356 kts | 149° |
| 2026-05-04 04:09 | 51.45538 | -1.03359 | 15351 ft | 355 kts | 149° |
| 2026-05-04 04:09 | 51.43454 | -1.01217 | 15098 ft | 354 kts | 149° |
| 2026-05-04 04:09 | 51.41401 | -0.99110 | 14857 ft | 353 kts | 149° |
| 2026-05-04 04:09 | 51.39335 | -0.96991 | 14613 ft | 351 kts | 149° |
| 2026-05-04 04:10 | 51.37275 | -0.94880 | 14369 ft | 350 kts | 149° |
| 2026-05-04 04:10 | 51.35242 | -0.92800 | 14127 ft | 349 kts | 149° |
| 2026-05-04 04:10 | 51.33200 | -0.90713 | 13890 ft | 348 kts | 149° |
| 2026-05-04 04:10 | 51.31155 | -0.88625 | 13634 ft | 347 kts | 149° |
| 2026-05-04 04:11 | 51.29121 | -0.86550 | 13366 ft | 346 kts | 149° |
| 2026-05-04 04:11 | 51.27155 | -0.84347 | 12988 ft | 347 kts | 139° |
| 2026-05-04 04:11 | 51.25638 | -0.81384 | 12436 ft | 349 kts | 127° |
| 2026-05-04 04:11 | 51.24268 | -0.78200 | 11949 ft | 346 kts | 126° |
| 2026-05-04 04:12 | 51.22938 | -0.75060 | 11462 ft | 342 kts | 126° |
| 2026-05-04 04:12 | 51.21609 | -0.71940 | 10979 ft | 339 kts | 126° |
| 2026-05-04 04:12 | 51.20281 | -0.68849 | 10490 ft | 335 kts | 126° |
| 2026-05-04 04:12 | 51.18970 | -0.65820 | 10252 ft | 325 kts | 126° |
| 2026-05-04 04:13 | 51.17715 | -0.62929 | 10125 ft | 311 kts | 127° |
| 2026-05-04 04:13 | 51.16514 | -0.60169 | 10010 ft | 299 kts | 127° |
| 2026-05-04 04:13 | 51.15718 | -0.58343 | 9806 ft | 294 kts | 127° |
| 2026-05-04 04:13 | 51.14659 | -0.55919 | 9589 ft | 287 kts | 127° |
| 2026-05-04 04:14 | 51.13526 | -0.53326 | 9250 ft | 283 kts | 127° |
| 2026-05-04 04:14 | 51.12403 | -0.50761 | 8876 ft | 280 kts | 127° |
| 2026-05-04 04:14 | 51.11292 | -0.48227 | 8517 ft | 278 kts | 127° |
| 2026-05-04 04:14 | 51.10191 | -0.45716 | 8157 ft | 275 kts | 127° |
| 2026-05-04 04:15 | 51.09097 | -0.43221 | 7800 ft | 273 kts | 127° |
| 2026-05-04 04:15 | 51.08026 | -0.40781 | 7456 ft | 271 kts | 127° |
| 2026-05-04 04:15 | 51.06952 | -0.38338 | 7100 ft | 269 kts | 127° |
| 2026-05-04 04:15 | 51.05881 | -0.35905 | 6752 ft | 268 kts | 127° |
| 2026-05-04 04:16 | 51.04813 | -0.33480 | 6435 ft | 265 kts | 127° |
| 2026-05-04 04:16 | 51.03757 | -0.31082 | 6069 ft | 263 kts | 127° |
| 2026-05-04 04:16 | 51.02720 | -0.28732 | 5735 ft | 261 kts | 127° |
| 2026-05-04 04:16 | 51.01674 | -0.26365 | 5389 ft | 260 kts | 127° |
| 2026-05-04 04:17 | 51.00641 | -0.24026 | 5143 ft | 254 kts | 127° |
| 2026-05-04 04:17 | 50.99641 | -0.21762 | 5002 ft | 245 kts | 127° |
| 2026-05-04 04:17 | 50.98676 | -0.19580 | 4715 ft | 244 kts | 127° |
| 2026-05-04 04:17 | 50.97620 | -0.17491 | 4383 ft | 241 kts | 140° |
| 2026-05-04 04:18 | 50.96444 | -0.16074 | 4106 ft | 239 kts | 148° |
| 2026-05-04 04:18 | 50.95176 | -0.14783 | 4008 ft | 230 kts | 150° |
| 2026-05-04 04:18 | 50.93790 | -0.13432 | 4002 ft | 236 kts | 150° |
| 2026-05-04 04:18 | 50.92516 | -0.11675 | 4008 ft | 265 kts | 127° |
| 2026-05-04 04:19 | 50.91818 | -0.08949 | 4002 ft | 271 kts | 98° |
| 2026-05-04 04:19 | 50.91993 | -0.05993 | 4006 ft | 273 kts | 70° |
| 2026-05-04 04:19 | 50.93003 | -0.03468 | 4007 ft | 273 kts | 45° |
| 2026-05-04 04:19 | 50.94413 | -0.01445 | 4004 ft | 273 kts | 40° |
| 2026-05-04 04:20 | 50.95833 | 0.00569 | 4005 ft | 273 kts | 43° |
| 2026-05-04 04:20 | 50.97163 | 0.02715 | 4000 ft | 269 kts | 47° |
| 2026-05-04 04:20 | 50.98383 | 0.04925 | 3997 ft | 273 kts | 50° |
| 2026-05-04 04:20 | 50.99590 | 0.07269 | 4006 ft | 273 kts | 51° |
| 2026-05-04 04:21 | 51.00779 | 0.09632 | 4004 ft | 273 kts | 48° |
| 2026-05-04 04:21 | 51.02290 | 0.11416 | 3910 ft | 271 kts | 20° |
| 2026-05-04 04:21 | 51.04073 | 0.11964 | 3845 ft | 260 kts | 2° |
| 2026-05-04 04:21 | 51.05840 | 0.12094 | 3720 ft | 246 kts | 360° |
| 2026-05-04 04:22 | 51.07508 | 0.12174 | 3619 ft | 233 kts | 360° |
| 2026-05-04 04:22 | 51.09100 | 0.12259 | 3442 ft | 225 kts | 0° |
| 2026-05-04 04:22 | 51.10659 | 0.12361 | 3151 ft | 223 kts | 0° |
| 2026-05-04 04:22 | 51.12185 | 0.12475 | 2871 ft | 222 kts | 1° |
| 2026-05-04 04:23 | 51.13740 | 0.12600 | 2582 ft | 220 kts | 1° |
| 2026-05-04 04:23 | 51.15266 | 0.12728 | 2260 ft | 219 kts | 1° |
| 2026-05-04 04:23 | 51.16781 | 0.12782 | 2024 ft | 213 kts | 348° |
| 2026-05-04 04:23 | 51.17990 | 0.11719 | 1998 ft | 192 kts | 311° |
| 2026-05-04 04:24 | 51.18756 | 0.10110 | 2026 ft | 179 kts | 294° |
| 2026-05-04 04:24 | 51.18887 | 0.08173 | 2001 ft | 179 kts | 255° |
| 2026-05-04 04:24 | 51.18450 | 0.06311 | 2001 ft | 180 kts | 250° |
| 2026-05-04 04:24 | 51.18070 | 0.04412 | 2001 ft | 179 kts | 254° |
| 2026-05-04 04:25 | 51.17757 | 0.02483 | 2000 ft | 179 kts | 256° |
| 2026-05-04 04:25 | 51.17490 | 0.00559 | 2001 ft | 179 kts | 258° |
| 2026-05-04 04:25 | 51.17238 | -0.01325 | 1989 ft | 164 kts | 258° |
| 2026-05-04 04:25 | 51.17010 | -0.03037 | 1993 ft | 151 kts | 258° |
| 2026-05-04 04:26 | 51.16792 | -0.04664 | 1903 ft | 150 kts | 258° |
| 2026-05-04 04:26 | 51.16593 | -0.06262 | 1700 ft | 148 kts | 258° |
| 2026-05-04 04:26 | 51.16370 | -0.07871 | 1490 ft | 148 kts | 257° |
| 2026-05-04 04:26 | 51.16149 | -0.09469 | 1281 ft | 143 kts | 257° |
| 2026-05-04 04:27 | 51.15940 | -0.10968 | 1071 ft | 136 kts | 257° |
| 2026-05-04 04:27 | 51.15741 | -0.12402 | 869 ft | 138 kts | 257° |
| 2026-05-04 04:27 | 51.15535 | -0.13886 | 689 ft | 136 kts | 257° |
| 2026-05-04 04:27 | 51.15327 | -0.15376 | 501 ft | 140 kts | 257° |
| 2026-05-04 04:28 | 51.15117 | -0.16886 | 325 ft | 136 kts | 257° |
| 2026-05-04 04:28 | 51.14918 | -0.18331 | 207 ft | 133 kts | 257° |
| 2026-05-04 04:28 | 51.14731 | -0.19726 | 211 ft | 110 kts | 254° |
| 2026-05-04 04:28 | 51.14594 | -0.20652 | 212 ft | 77 kts | 257° |
| 2026-05-04 04:29 | 51.14522 | -0.21225 | 205 ft | 27 kts | 285° |
| 2026-05-04 04:29 | 51.14589 | -0.21319 | 211 ft | 0 kts | 341° |
| 2026-05-04 04:30 | 51.14614 | -0.21329 | 211 ft | 7 kts | 347° |
| 2026-05-04 04:30 | 51.14676 | -0.21316 | 209 ft | 11 kts | 38° |
| 2026-05-04 04:30 | 51.14696 | -0.21210 | 205 ft | 11 kts | 76° |
| 2026-05-04 04:30 | 51.14717 | -0.21069 | 208 ft | 15 kts | 77° |
| 2026-05-04 04:31 | 51.14741 | -0.20895 | 215 ft | 17 kts | 76° |
| 2026-05-04 04:31 | 51.14767 | -0.20721 | 206 ft | 15 kts | 63° |
| 2026-05-04 04:31 | 51.14857 | -0.20628 | 210 ft | 16 kts | 37° |
| 2026-05-04 04:31 | 51.14894 | -0.20455 | 204 ft | 18 kts | 78° |
| 2026-05-04 04:32 | 51.14921 | -0.20250 | 204 ft | 20 kts | 79° |
| 2026-05-04 04:32 | 51.14954 | -0.20020 | 209 ft | 22 kts | 79° |
| 2026-05-04 04:32 | 51.14989 | -0.19769 | 208 ft | 24 kts | 77° |
| 2026-05-04 04:32 | 51.15027 | -0.19497 | 209 ft | 26 kts | 78° |
| 2026-05-04 04:33 | 51.15065 | -0.19209 | 205 ft | 28 kts | 78° |
| 2026-05-04 04:33 | 51.15107 | -0.18904 | 211 ft | 24 kts | 77° |
| 2026-05-04 04:33 | 51.15145 | -0.18636 | 210 ft | 26 kts | 76° |
| 2026-05-04 04:33 | 51.15178 | -0.18389 | 208 ft | 19 kts | 77° |
| 2026-05-04 04:34 | 51.15206 | -0.18231 | 212 ft | 13 kts | 30° |
| 2026-05-04 04:34 | 51.15302 | -0.18251 | 211 ft | 15 kts | 348° |
| 2026-05-04 04:34 | 51.15417 | -0.18290 | 210 ft | 18 kts | 347° |
| 2026-05-04 04:34 | 51.15519 | -0.18321 | 207 ft | 14 kts | 1° |
| 2026-05-04 04:35 | 51.15615 | -0.18246 | 209 ft | 16 kts | 15° |
| 2026-05-04 04:35 | 51.15718 | -0.18175 | 206 ft | 11 kts | 6° |
| 2026-05-04 04:35 | 51.15764 | -0.18105 | 209 ft | 11 kts | 64° |
| 2026-05-04 04:35 | 51.15834 | -0.18076 | 207 ft | 12 kts | 352° |
| 2026-05-04 04:36 | 51.15890 | -0.18075 | 207 ft | 1 kts | 61° |
| 2026-05-04 04:36 | 51.15894 | -0.18034 | 206 ft | 7 kts | 79° |
| 2026-05-04 04:36 | 51.15903 | -0.17968 | 208 ft | 0 kts | 78° |